Time;durP1;ratioP1;P1;durP2;ratioP2;P2;SDS_P1;SDS_P2;PMS_P1;PMS_P2;Temp;Humidity;BMP_temperature;BMP_pressure;BME280_temperature;BME280_humidity;BME280_pressure;Samples;Min_cycle;Max_cycle;Signal;HPM_P1;HPM_P2
2022/04/28 00:00:58;;;;;;;13.08;7.87;;;;;;;10.03;69.63;101135.87;1728713;83;21102;-79
2022/04/28 00:03:25;;;;;;;11.70;7.62;;;;;;;9.98;69.77;101135.80;1728163;83;21052;-78
2022/04/28 00:05:53;;;;;;;12.33;8.10;;;;;;;9.94;69.80;101137.33;1727542;83;21023;-79
2022/04/28 00:08:21;;;;;;;11.63;8.03;;;;;;;9.89;69.80;101141.75;1726201;83;21138;-79
2022/04/28 00:10:48;;;;;;;12.30;7.90;;;;;;;9.84;69.72;101136.61;1728883;83;21044;-79
2022/04/28 00:13:17;;;;;;;12.10;7.83;;;;;;;9.81;69.50;101137.08;1728465;83;21437;-78
2022/04/28 00:15:43;;;;;;;12.37;7.95;;;;;;;9.77;69.28;101135.10;1727598;83;20956;-78
2022/04/28 00:18:11;;;;;;;14.23;8.00;;;;;;;9.76;69.10;101137.49;1726099;83;21046;-79
2022/04/28 00:20:38;;;;;;;13.32;7.87;;;;;;;9.77;69.01;101149.28;1725905;83;20984;-79
2022/04/28 00:23:05;;;;;;;12.43;7.37;;;;;;;9.77;68.92;101141.77;1726311;83;21075;-80
2022/04/28 00:25:34;;;;;;;10.18;7.30;;;;;;;9.76;68.80;101140.97;1724695;83;21051;-79
2022/04/28 00:28:03;;;;;;;10.25;7.75;;;;;;;9.75;68.68;101143.89;1666572;85;20952;-79
2022/04/28 00:30:29;;;;;;;10.13;7.28;;;;;;;9.74;68.57;101147.08;1667875;84;20999;-79
2022/04/28 00:32:56;;;;;;;11.95;7.30;;;;;;;9.73;68.46;101147.30;1728286;83;21492;-78
2022/04/28 00:35:25;;;;;;;9.68;6.92;;;;;;;9.71;68.34;101143.55;1727452;83;21069;-78
2022/04/28 00:37:52;;;;;;;12.35;7.28;;;;;;;9.71;68.14;101148.89;1728357;83;21793;-78
2022/04/28 00:40:19;;;;;;;10.35;7.00;;;;;;;9.71;67.97;101144.08;1727522;83;20948;-79
2022/04/28 00:42:49;;;;;;;14.13;6.80;;;;;;;9.70;67.81;101146.44;1725985;83;21609;-79
2022/04/28 00:45:18;;;;;;;10.25;6.70;;;;;;;9.71;67.65;101155.55;1725992;83;21562;-79
2022/04/28 00:50:41;;;;;;;7.95;5.28;;;;;;;9.73;67.11;101157.45;1728202;83;21169;-77
2022/04/28 00:53:11;;;;;;;10.05;5.08;;;;;;;9.74;66.81;101156.92;1728667;83;21002;-78
2022/04/28 00:55:39;;;;;;;7.92;5.55;;;;;;;9.76;66.46;101156.17;1710166;83;21102;-77
2022/04/28 00:58:09;;;;;;;9.65;5.40;;;;;;;9.77;66.17;101159.11;1695904;84;20976;-79
2022/04/28 01:00:39;;;;;;;9.13;5.53;;;;;;;9.79;65.94;101159.70;1733464;82;21553;-79
2022/04/28 01:03:09;;;;;;;8.63;5.10;;;;;;;9.81;65.73;101156.28;1678561;84;20944;-78
2022/04/28 01:05:39;;;;;;;8.40;4.65;;;;;;;9.84;65.55;101153.14;1728121;83;21511;-79
2022/04/28 01:08:08;;;;;;;7.30;4.75;;;;;;;9.86;65.42;101159.84;1698161;83;21017;-78
2022/04/28 01:10:37;;;;;;;6.75;4.67;;;;;;;9.86;65.21;101153.17;1728146;83;20993;-79
2022/04/28 01:13:06;;;;;;;8.70;4.65;;;;;;;9.86;65.00;101156.36;1728314;83;21001;-80
2022/04/28 01:15:45;;;;;;;6.40;3.95;;;;;;;9.85;64.81;101159.56;1726285;83;21533;-77
2022/04/28 01:18:14;;;;;;;9.15;4.47;;;;;;;9.83;64.63;101154.17;1728563;83;20948;-76
2022/04/28 01:20:42;;;;;;;6.87;4.40;;;;;;;9.82;64.51;101157.36;1728997;83;21049;-78
2022/04/28 01:23:11;;;;;;;7.50;4.58;;;;;;;9.81;64.49;101153.61;1728492;83;21374;-78
2022/04/28 01:25:41;;;;;;;6.92;3.98;;;;;;;9.81;64.43;101149.08;1701850;83;22725;-79
2022/04/28 01:28:08;;;;;;;5.87;3.75;;;;;;;9.81;64.24;101153.61;1695860;84;21052;-79
2022/04/28 01:30:37;;;;;;;7.58;4.50;;;;;;;9.77;63.99;101157.78;1670840;83;21533;-80
2022/04/28 01:33:06;;;;;;;9.18;4.50;;;;;;;9.74;63.89;101160.91;1695252;84;21529;-78
2022/04/28 01:35:35;;;;;;;8.45;3.95;;;;;;;9.72;63.92;101164.36;1695380;84;21773;-79
2022/04/28 01:38:03;;;;;;;7.33;4.15;;;;;;;9.68;63.79;101154.69;1696150;84;20984;-80
2022/04/28 01:40:31;;;;;;;6.58;3.80;;;;;;;9.67;63.66;101156.24;1728239;83;21520;-80
2022/04/28 01:43:03;;;;;;;6.85;4.30;;;;;;;9.63;63.65;101156.72;1728182;83;20953;-79
2022/04/28 01:45:32;;;;;;;6.15;4.15;;;;;;;9.63;63.78;101160.72;1728086;83;20966;-78
2022/04/28 01:48:01;;;;;;;7.67;4.35;;;;;;;9.62;63.87;101153.77;1724855;83;21459;-78
2022/04/28 01:56:26;;;;;;;6.65;4.47;;;;;;;9.63;63.85;101143.38;1727454;83;21096;-79
2022/04/28 01:58:56;;;;;;;6.22;3.80;;;;;;;9.63;63.74;101139.38;1713148;83;21024;-80
2022/04/28 02:01:38;;;;;;;5.42;3.37;;;;;;;9.65;63.64;101142.35;1724077;83;21088;-78
2022/04/28 02:04:05;;;;;;;5.70;3.60;;;;;;;9.67;63.45;101142.91;1728311;83;21656;-80
2022/04/28 02:06:33;;;;;;;5.80;3.27;;;;;;;9.69;63.32;101140.83;1726025;83;21149;-79
2022/04/28 02:09:01;;;;;;;7.47;3.47;;;;;;;9.73;63.09;101142.77;1726030;83;21518;-79
2022/04/28 02:11:29;;;;;;;5.72;3.33;;;;;;;9.77;62.78;101143.11;1727209;83;21012;-78
2022/04/28 02:14:05;;;;;;;6.62;3.10;;;;;;;9.77;62.41;101147.94;1723891;83;21211;-79
2022/04/28 02:16:34;;;;;;;5.40;3.22;;;;;;;9.78;62.16;101144.75;1723679;83;21001;-78
2022/04/28 02:19:08;;;;;;;5.55;3.05;;;;;;;9.75;61.98;101147.36;1726120;83;21086;-80
2022/04/28 02:21:36;;;;;;;5.00;3.17;;;;;;;9.71;61.90;101148.08;1728038;83;21040;-79
2022/04/28 02:24:06;;;;;;;5.30;3.30;;;;;;;9.70;61.96;101153.11;1703126;83;21114;-79
2022/04/28 02:26:34;;;;;;;5.67;3.00;;;;;;;9.68;61.95;101151.22;1680547;84;20984;-79
2022/04/28 02:29:06;;;;;;;6.37;3.47;;;;;;;9.67;61.95;101150.91;1715382;83;21059;-79
2022/04/28 02:31:36;;;;;;;5.92;3.17;;;;;;;9.65;61.93;101149.02;1710502;83;21518;-79
2022/04/28 02:34:04;;;;;;;5.47;3.15;;;;;;;9.63;61.96;101154.58;1710734;83;21109;-79
2022/04/28 02:36:33;;;;;;;4.92;3.02;;;;;;;9.60;62.04;101157.19;1710788;83;20968;-76
2022/04/28 02:38:59;;;;;;;4.80;2.87;;;;;;;9.59;62.16;101154.77;1716846;83;21103;-77
2022/04/28 02:41:27;;;;;;;5.92;3.60;;;;;;;9.56;62.36;101152.04;1728304;83;20972;-79
2022/04/28 02:43:54;;;;;;;6.30;3.37;;;;;;;9.56;62.58;101157.38;1727261;83;21102;-79
2022/04/28 02:46:22;;;;;;;5.35;3.20;;;;;;;9.54;62.75;101155.98;1728775;83;20952;-81
2022/04/28 02:48:50;;;;;;;5.95;3.22;;;;;;;9.53;62.83;101154.37;1726305;83;21004;-79
2022/04/28 02:51:18;;;;;;;4.78;3.15;;;;;;;9.50;62.81;101150.84;1726932;81;21043;-80
2022/04/28 02:53:47;;;;;;;5.00;2.80;;;;;;;9.49;62.82;101147.36;1726306;83;21456;-79
2022/04/28 02:56:14;;;;;;;4.60;2.95;;;;;;;9.49;62.82;101145.23;1713122;83;21657;-79
2022/04/28 02:58:43;;;;;;;5.40;3.00;;;;;;;9.49;62.80;101146.03;1693203;84;21103;-79
2022/04/28 03:01:10;;;;;;;4.83;3.00;;;;;;;9.51;62.77;101151.95;1725480;83;21434;-79
2022/04/28 03:03:40;;;;;;;5.20;3.10;;;;;;;9.52;62.82;101152.76;1667827;85;21061;-79
2022/04/28 03:11:42;;;;;;;4.28;2.70;;;;;;;9.56;62.52;101157.90;1668066;85;21079;-79
2022/04/28 03:14:12;;;;;;;4.62;2.30;;;;;;;9.58;62.35;101169.16;1706715;83;21034;-79
2022/04/28 03:16:41;;;;;;;4.78;3.00;;;;;;;9.62;62.24;101165.77;1721713;83;21044;-80
2022/04/28 03:19:08;;;;;;;4.58;2.65;;;;;;;9.66;62.19;101166.64;1722032;83;21551;-80
2022/04/28 03:21:37;;;;;;;3.67;2.50;;;;;;;9.72;62.14;101164.36;1723865;83;21153;-79
2022/04/28 03:24:07;;;;;;;4.55;2.80;;;;;;;9.80;61.98;101175.45;1700297;83;21015;-79
2022/04/28 03:26:37;;;;;;;4.45;2.62;;;;;;;9.90;61.95;101179.37;1666508;86;21582;-79
2022/04/28 03:29:06;;;;;;;4.80;2.87;;;;;;;9.98;61.67;101175.82;1699198;84;21062;-80
2022/04/28 03:31:35;;;;;;;4.50;2.47;;;;;;;10.07;61.37;101178.94;1667835;84;21105;-79
2022/04/28 03:34:05;;;;;;;4.75;2.87;;;;;;;10.17;60.92;101183.63;1729666;83;21549;-80
2022/04/28 03:39:18;;;;;;;4.47;2.60;;;;;;;10.36;60.15;101182.94;1736109;82;21061;-79
2022/04/28 03:41:46;;;;;;;6.40;2.52;;;;;;;10.44;59.76;101181.23;1735908;82;21063;-80
2022/04/28 03:44:13;;;;;;;6.12;2.67;;;;;;;10.49;59.39;101183.45;1736147;82;20993;-80
2022/04/28 03:46:41;;;;;;;4.28;2.42;;;;;;;10.55;58.96;101186.48;1735061;82;21145;-80
2022/04/28 03:49:09;;;;;;;4.53;2.50;;;;;;;10.60;58.77;101184.98;1727809;83;20931;-80
2022/04/28 03:51:38;;;;;;;4.53;2.60;;;;;;;10.66;58.62;101192.84;1727868;83;21010;-81
2022/04/28 03:54:05;;;;;;;3.80;2.37;;;;;;;10.74;58.35;101194.29;1728826;83;21098;-80
2022/04/28 03:56:34;;;;;;;4.67;2.90;;;;;;;10.82;58.05;101191.73;1723557;82;21079;-81
2022/04/28 03:59:04;;;;;;;3.50;2.40;;;;;;;10.86;57.66;101196.37;1679305;85;21622;-80
2022/04/28 04:01:33;;;;;;;4.17;2.30;;;;;;;10.90;57.44;101196.16;1668597;86;20973;-80
2022/04/28 04:04:04;;;;;;;4.05;2.50;;;;;;;10.96;57.20;101203.20;1672666;84;21133;-79
2022/04/28 04:06:33;;;;;;;3.77;2.33;;;;;;;11.01;57.07;101205.14;1695746;84;21062;-80
2022/04/28 04:09:21;;;;;;;4.12;2.50;;;;;;;11.07;57.00;101204.17;1690913;84;20939;-80
2022/04/28 04:11:49;;;;;;;4.15;2.20;;;;;;;11.12;56.60;101215.45;1727960;83;21149;-79
2022/04/28 04:14:19;;;;;;;4.70;2.45;;;;;;;11.17;56.11;101219.55;1727230;83;21001;-80
2022/04/28 04:16:47;;;;;;;4.12;2.30;;;;;;;11.21;55.83;101224.16;1684543;85;21041;-81
2022/04/28 04:19:17;;;;;;;4.20;2.20;;;;;;;11.27;55.51;101238.42;1696826;84;21467;-79
2022/04/28 04:21:46;;;;;;;3.60;2.20;;;;;;;11.36;55.19;101244.18;1696750;84;21053;-81
2022/04/28 04:24:15;;;;;;;4.78;2.25;;;;;;;11.44;55.12;101245.09;1700024;84;21683;-80
2022/04/28 04:26:43;;;;;;;4.40;2.33;;;;;;;11.54;54.99;101241.75;1730078;82;21059;-82
2022/04/28 04:29:12;;;;;;;5.15;2.45;;;;;;;11.62;54.85;101240.00;1699131;83;21095;-80
2022/04/28 04:34:42;;;;;;;3.70;2.45;;;;;;;11.69;54.13;101237.95;1681524;84;20916;-78
2022/04/28 04:37:09;;;;;;;3.90;2.42;;;;;;;11.69;54.06;101243.30;1666571;85;21653;-78
2022/04/28 04:39:38;;;;;;;5.35;2.45;;;;;;;11.74;54.17;101246.03;1669125;84;21087;-80
2022/04/28 04:42:08;;;;;;;3.62;2.17;;;;;;;11.85;53.82;101237.66;1701807;84;21046;-79
2022/04/28 04:44:36;;;;;;;3.77;2.27;;;;;;;11.95;53.53;101241.27;1697839;83;21032;-79
2022/04/28 04:47:03;;;;;;;4.62;2.42;;;;;;;12.08;53.22;101241.95;1667899;85;21460;-79
2022/04/28 04:49:36;;;;;;;3.60;2.20;;;;;;;12.22;52.81;101243.72;1669486;86;21181;-79
2022/04/28 04:52:12;;;;;;;4.90;2.30;;;;;;;12.37;52.60;101243.86;1652595;84;21151;-79
2022/04/28 04:54:41;;;;;;;4.40;2.60;;;;;;;12.52;52.32;101243.22;1657852;84;21007;-80
2022/04/28 04:57:08;;;;;;;3.72;2.40;;;;;;;12.67;51.91;101240.17;1681855;84;21071;-79
2022/04/28 04:59:36;;;;;;;3.92;2.40;;;;;;;12.79;51.79;101245.34;1728858;83;20969;-80
2022/04/28 05:02:06;;;;;;;4.75;2.72;;;;;;;12.87;51.29;101242.22;1734735;82;21547;-78
2022/04/28 05:04:51;;;;;;;4.10;2.52;;;;;;;12.96;50.99;101247.09;1709474;82;21184;-79
2022/04/28 05:07:20;;;;;;;3.85;2.45;;;;;;;13.05;51.04;101248.25;1691030;84;20952;-81
2022/04/28 05:09:49;;;;;;;3.90;2.50;;;;;;;13.10;50.99;101253.67;1699341;84;21046;-81
2022/04/28 05:12:18;;;;;;;4.53;2.80;;;;;;;13.11;51.02;101257.42;1699681;84;21232;-80
2022/04/28 05:14:49;;;;;;;4.30;2.77;;;;;;;13.13;50.99;101254.50;1693247;84;21401;-80
2022/04/28 05:17:17;;;;;;;4.93;2.90;;;;;;;13.18;50.89;101251.03;1698076;83;21801;-81
2022/04/28 05:19:50;;;;;;;4.47;2.90;;;;;;;13.20;50.49;101259.11;1680164;84;21908;-80
2022/04/28 05:22:35;;;;;;;4.53;2.60;;;;;;;13.23;50.48;101254.57;1642948;87;21316;-78
2022/04/28 05:25:09;;;;;;;4.23;2.63;;;;;;;13.34;50.67;101262.18;1653613;86;21131;-78
2022/04/28 05:27:48;;;;;;;4.00;2.60;;;;;;;13.46;50.30;101256.61;1667545;84;21347;-80
2022/04/28 05:30:34;;;;;;;4.63;2.43;;;;;;;13.55;50.12;101259.08;1698497;84;21175;-80
2022/04/28 05:33:11;;;;;;;4.53;2.73;;;;;;;13.61;49.66;101262.08;1730439;82;21204;-79
2022/04/28 05:35:58;;;;;;;4.77;2.73;;;;;;;13.65;49.49;101262.36;1668338;84;21220;-79
2022/04/28 05:38:33;;;;;;;4.90;2.80;;;;;;;13.71;49.16;101260.79;1729553;83;21221;-78
2022/04/28 05:41:03;;;;;;;4.37;2.70;;;;;;;13.75;48.85;101265.91;1699109;83;21187;-81
2022/04/28 05:46:15;;;;;;;4.13;2.50;;;;;;;13.86;48.46;101261.95;1728100;83;21788;-81
2022/04/28 05:48:44;;;;;;;4.00;2.53;;;;;;;13.94;48.39;101272.18;1667935;84;21292;-79
2022/04/28 05:51:15;;;;;;;4.00;2.40;;;;;;;14.01;48.39;101265.48;1666954;84;21320;-81
2022/04/28 05:53:44;;;;;;;3.97;2.30;;;;;;;14.10;48.05;101265.80;1730060;83;21385;-80
2022/04/28 05:56:13;;;;;;;4.47;2.43;;;;;;;14.15;47.77;101257.78;1679429;84;21210;-79
2022/04/28 05:58:50;;;;;;;5.43;2.63;;;;;;;14.22;48.05;101262.91;1697033;84;21295;-80
2022/04/28 06:01:38;;;;;;;5.10;2.50;;;;;;;14.33;47.68;101267.23;1646292;86;21228;-79
2022/04/28 06:04:08;;;;;;;3.70;2.40;;;;;;;14.46;47.13;101266.72;1656257;86;21314;-80
2022/04/28 06:06:38;;;;;;;4.70;2.10;;;;;;;14.61;46.90;101271.37;1624786;84;21216;-79
2022/04/28 06:09:10;;;;;;;3.40;2.17;;;;;;;14.77;46.34;101265.45;1692281;84;21063;-78
2022/04/28 06:11:38;;;;;;;4.07;2.30;;;;;;;14.93;46.02;101263.58;1702244;83;21312;-79
2022/04/28 06:14:07;;;;;;;4.03;2.10;;;;;;;15.07;45.29;101271.41;1702464;83;21300;-79
2022/04/28 06:16:47;;;;;;;3.37;2.03;;;;;;;15.19;44.88;101259.81;1730855;83;21324;-79
2022/04/28 06:19:19;;;;;;;6.20;2.15;;;;;;;15.42;44.48;101268.40;1715999;83;21285;-78
2022/04/28 06:22:05;;;;;;;3.47;1.90;;;;;;;15.64;43.17;101262.71;1682512;83;21118;-79
2022/04/28 06:24:37;;;;;;;3.43;1.90;;;;;;;16.07;41.03;101257.19;1725992;83;21228;-81
2022/04/28 06:27:06;;;;;;;3.93;1.80;;;;;;;16.07;41.03;101257.19;1729186;83;21421;-78
2022/04/28 06:29:33;;;;;;;2.67;1.50;;;;;;;16.22;40.49;101263.58;1723360;83;21351;-79
2022/04/28 06:32:03;;;;;;;4.30;1.60;;;;;;;16.48;39.06;101264.25;1703545;84;21402;-78
2022/04/28 06:34:49;;;;;;;2.33;1.40;;;;;;;16.62;38.26;101275.50;1703933;84;21462;-78
2022/04/28 06:37:17;;;;;;;3.57;1.60;;;;;;;16.64;38.07;101276.01;1673813;84;21996;-79
2022/04/28 06:39:47;;;;;;;3.07;1.60;;;;;;;16.64;38.07;101276.01;1703712;84;21573;-80
2022/04/28 06:42:15;;;;;;;3.30;1.80;;;;;;;16.62;37.96;101294.92;1674504;84;21452;-80
2022/04/28 06:45:09;;;;;;;9.40;2.67;;;;;;;16.51;37.97;101277.18;1723784;79;21639;-73
2022/04/28 06:47:55;;;;;;;5.40;2.15;;;;;;;16.41;38.94;101279.39;1734346;81;21636;-80
2022/04/28 06:50:34;;;;;;;4.13;2.53;;;;;;;16.43;39.14;101281.28;1696720;83;21100;-81
2022/04/28 06:53:20;;;;;;;4.40;2.57;;;;;;;16.53;39.09;101284.46;1654224;86;21480;-79
2022/04/28 06:55:50;;;;;;;;;;;;;;;16.60;38.79;101287.64;1686325;84;21736;-80
2022/04/28 06:58:25;;;;;;;4.93;2.10;;;;;;;16.62;38.95;101294.38;1736878;82;21878;-79
2022/04/28 07:00:54;;;;;;;5.83;2.30;;;;;;;16.81;39.39;101289.17;1711508;82;21578;-79
2022/04/28 07:03:24;;;;;;;3.70;1.60;;;;;;;16.81;39.39;101289.17;1704631;84;21707;-78
2022/04/28 07:05:54;;;;;;;2.70;1.50;;;;;;;16.96;36.50;101293.63;1704695;84;21670;-78
2022/04/28 07:08:23;;;;;;;3.47;1.60;;;;;;;17.00;36.35;101290.63;1704577;84;21705;-80
2022/04/28 07:10:51;;;;;;;4.67;1.60;;;;;;;17.05;35.76;101283.05;1704789;82;21746;-79
2022/04/28 07:13:18;;;;;;;3.70;1.70;;;;;;;17.11;36.62;101278.67;1704347;84;21719;-80
2022/04/28 07:16:08;;;;;;;3.67;1.50;;;;;;;17.23;36.27;101285.59;1704784;84;21775;-80
2022/04/28 07:18:53;;;;;;;3.03;1.60;;;;;;;17.27;35.78;101282.02;1676633;84;21739;-79
2022/04/28 07:21:21;;;;;;;3.33;1.67;;;;;;;17.22;35.59;101285.34;1675879;85;21729;-80
2022/04/28 07:23:50;;;;;;;13.27;2.57;;;;;;;17.17;35.96;101284.81;1675396;83;21788;-79
2022/04/28 07:26:19;;;;;;;2.73;1.53;;;;;;;17.21;36.23;101283.19;1669386;84;21771;-79
2022/04/28 07:28:46;;;;;;;4.10;1.47;;;;;;;17.34;35.55;101289.80;1718502;82;21738;-78
2022/04/28 07:31:23;;;;;;;2.30;1.30;;;;;;;17.47;35.17;101289.16;1732086;83;21773;-80
2022/04/28 07:34:10;;;;;;;2.20;1.30;;;;;;;17.55;34.30;101298.52;1733396;82;21667;-77
2022/04/28 07:36:55;;;;;;;2.40;1.17;;;;;;;17.64;34.12;101290.61;1736125;82;21876;-79
2022/04/28 07:39:28;;;;;;;2.73;1.30;;;;;;;17.79;32.48;101286.41;1736359;82;22205;-79
2022/04/28 07:42:11;;;;;;;2.67;1.40;;;;;;;17.79;32.48;101281.00;1736416;82;20985;-80
2022/04/28 07:44:40;;;;;;;2.70;1.13;;;;;;;17.87;33.35;101293.06;1735293;82;21150;-78
2022/04/28 07:47:11;;;;;;;2.07;1.13;;;;;;;17.96;32.95;101294.84;1666789;86;21723;-79
2022/04/28 07:49:40;;;;;;;2.87;1.50;;;;;;;18.03;32.17;101298.03;1723224;82;21751;-79
2022/04/28 07:52:08;;;;;;;4.20;1.60;;;;;;;18.07;32.42;101287.44;1695870;84;21003;-79
2022/04/28 07:54:36;;;;;;;1.93;1.33;;;;;;;18.13;31.88;101294.40;1668745;84;21586;-78
2022/04/28 07:57:04;;;;;;;5.13;1.50;;;;;;;18.24;31.37;101294.52;1728680;83;20981;-80
2022/04/28 07:59:31;;;;;;;2.60;1.40;;;;;;;18.31;31.51;101302.82;1702064;83;21012;-79
2022/04/28 08:02:02;;;;;;;3.10;1.27;;;;;;;18.38;31.16;101300.00;1701716;83;21228;-77
2022/04/28 08:04:32;;;;;;;4.08;1.50;;;;;;;18.41;30.80;101299.42;1715739;83;20984;-79
2022/04/28 08:07:00;;;;;;;2.27;1.50;;;;;;;18.40;31.42;101298.37;1728469;83;21032;-79
2022/04/28 08:09:28;;;;;;;3.83;1.40;;;;;;;18.44;31.16;101299.40;1731497;83;20970;-77
2022/04/28 08:11:55;;;;;;;3.77;1.67;;;;;;;18.49;31.45;101298.79;1730689;83;21051;-80
2022/04/28 08:14:26;;;;;;;3.87;1.50;;;;;;;18.58;31.57;101299.47;1728946;83;21316;-78
2022/04/28 08:16:53;;;;;;;2.90;1.60;;;;;;;18.66;30.46;101297.48;1706332;83;20995;-78
2022/04/28 08:19:21;;;;;;;2.93;1.63;;;;;;;18.74;30.04;101303.59;1667970;84;21499;-79
2022/04/28 08:22:04;;;;;;;3.60;1.90;;;;;;;18.83;29.50;101302.39;1696320;84;20961;-79
2022/04/28 08:24:34;;;;;;;3.47;1.77;;;;;;;18.88;29.62;101298.23;1727586;82;21040;-77
2022/04/28 08:27:03;;;;;;;5.27;2.10;;;;;;;18.89;29.28;101299.31;1736434;82;21101;-77
2022/04/28 08:29:32;;;;;;;6.33;2.30;;;;;;;18.92;29.83;101303.31;1736194;82;21072;-78
2022/04/28 08:32:04;;;;;;;5.40;2.33;;;;;;;19.07;29.83;101302.28;1736708;82;21033;-80
2022/04/28 08:34:31;;;;;;;5.67;1.97;;;;;;;19.24;28.46;101304.43;1736931;82;21048;-78
2022/04/28 08:36:59;;;;;;;5.90;2.30;;;;;;;19.25;28.21;101300.61;1735141;82;21007;-81
2022/04/28 08:39:26;;;;;;;5.17;2.10;;;;;;;19.26;28.38;101305.75;1667992;86;21223;-79
2022/04/28 08:41:59;;;;;;;5.73;2.00;;;;;;;19.25;27.90;101304.15;1735360;82;21032;-79
2022/04/28 08:44:27;;;;;;;4.70;2.00;;;;;;;19.15;27.39;101298.88;1734744;82;21091;-79
2022/04/28 08:46:56;;;;;;;4.70;2.03;;;;;;;19.08;27.56;101301.97;1735740;82;21056;-78
2022/04/28 08:49:30;;;;;;;3.90;1.70;;;;;;;19.04;27.85;101299.61;1711663;82;21122;-79
2022/04/28 08:52:16;;;;;;;3.33;1.77;;;;;;;19.01;27.28;101306.16;1667042;86;21880;-79
2022/04/28 08:54:46;;;;;;;4.37;2.00;;;;;;;18.91;27.30;101306.57;1723679;83;21019;-80
2022/04/28 08:57:15;;;;;;;4.63;1.70;;;;;;;18.92;27.64;101304.14;1727253;83;21513;-79
2022/04/28 08:59:44;;;;;;;3.17;1.50;;;;;;;18.96;27.39;101302.44;1727879;83;21076;-79
2022/04/28 09:02:12;;;;;;;3.10;1.13;;;;;;;18.98;26.97;101307.55;1729237;83;21013;-79
2022/04/28 09:05:03;;;;;;;3.47;1.93;;;;;;;18.97;26.90;101304.05;1727647;83;21053;-80
2022/04/28 09:07:50;;;;;;;4.83;1.43;;;;;;;18.94;26.77;101299.21;1729314;83;21056;-80
2022/04/28 09:10:36;;;;;;;3.17;1.33;;;;;;;18.97;27.00;101294.56;1668869;84;32731;-79
2022/04/28 09:16:04;;;;;;;3.97;1.37;;;;;;;19.05;26.69;101283.63;1720640;83;20957;-78
2022/04/28 09:18:33;;;;;;;3.33;1.10;;;;;;;19.06;26.46;101288.49;1639877;86;20971;-81
2022/04/28 09:21:02;;;;;;;2.10;1.10;;;;;;;18.95;26.69;101288.66;1668779;86;20999;-78
2022/04/28 09:23:32;;;;;;;2.33;1.10;;;;;;;18.93;26.89;101282.73;1660435;86;20986;-79
2022/04/28 09:26:00;;;;;;;2.67;1.20;;;;;;;19.08;27.48;101284.92;1699201;84;21005;-79
2022/04/28 09:28:28;;;;;;;2.70;1.17;;;;;;;19.18;26.74;101285.58;1689303;83;21006;-79
2022/04/28 09:30:56;;;;;;;2.60;1.20;;;;;;;19.24;26.82;101278.14;1724374;83;21315;-77
2022/04/28 09:33:31;;;;;;;2.87;1.40;;;;;;;19.32;26.02;101284.25;1707892;83;20993;-78
2022/04/28 09:36:04;;;;;;;4.10;2.10;;;;;;;19.29;26.61;101282.69;1698206;82;21096;-78
2022/04/28 09:38:43;;;;;;;4.47;2.13;;;;;;;19.37;27.35;101276.57;1727546;83;20962;-80
2022/04/28 09:43:57;;;;;;;4.33;1.73;;;;;;;19.48;26.83;101274.47;1726952;82;21550;-78
2022/04/28 09:46:26;;;;;;;5.63;2.30;;;;;;;19.43;27.71;101272.11;1717991;83;21052;-78
2022/04/28 09:48:56;;;;;;;5.10;2.10;;;;;;;19.48;28.42;101281.25;1668334;86;21582;-79
2022/04/28 09:51:27;;;;;;;2.98;1.87;;;;;;;19.54;28.58;101275.98;1682771;84;21821;-80
2022/04/28 09:54:08;;;;;;;3.77;2.30;;;;;;;19.66;28.89;101284.47;1626843;84;20957;-79
2022/04/28 09:56:42;;;;;;;5.10;2.80;;;;;;;19.71;28.73;101272.72;1726731;83;21219;-77
2022/04/28 09:59:22;;;;;;;5.37;2.57;;;;;;;19.64;29.66;101273.11;1712535;83;21024;-78
2022/04/28 10:01:49;;;;;;;8.20;3.33;;;;;;;19.61;29.66;101277.75;1713930;83;21103;-81
2022/04/28 10:04:18;;;;;;;4.63;2.50;;;;;;;19.59;30.02;101280.77;1696519;84;20962;-79
2022/04/28 10:07:01;;;;;;;4.53;2.00;;;;;;;19.64;30.12;101286.66;1695931;84;21064;-79
2022/04/28 10:09:32;;;;;;;5.23;2.80;;;;;;;19.68;28.91;101284.98;1728562;83;21023;-78
2022/04/28 10:12:11;;;;;;;4.60;2.27;;;;;;;19.59;29.27;101290.25;1728490;83;20949;-78
2022/04/28 10:14:43;;;;;;;5.17;2.00;;;;;;;19.49;29.46;101278.81;1714034;83;20974;-80
2022/04/28 10:17:29;;;;;;;3.20;1.70;;;;;;;19.40;29.17;101298.45;1703770;83;21086;-78
2022/04/28 10:20:00;;;;;;;3.20;1.50;;;;;;;19.37;29.30;101289.56;1695945;84;21169;-78
2022/04/28 10:22:34;;;;;;;3.20;1.70;;;;;;;19.45;28.96;101284.83;1724301;82;21793;-78
2022/04/28 10:33:48;;;;;;;4.10;1.50;;;;;;;18.48;29.09;101290.95;1704276;84;21101;-78
2022/04/28 10:36:17;;;;;;;3.70;1.73;;;;;;;18.44;29.82;101285.32;1723312;82;21099;-77
2022/04/28 10:39:11;;;;;;;4.30;1.47;;;;;;;18.40;29.86;101289.71;1731888;82;21013;-79
2022/04/28 10:41:38;;;;;;;2.43;1.30;;;;;;;18.32;29.24;101281.44;1715112;82;21519;-79
2022/04/28 10:44:16;;;;;;;2.73;1.20;;;;;;;18.26;29.80;101277.98;1704974;84;20973;-79
2022/04/28 10:46:59;;;;;;;2.77;1.30;;;;;;;18.38;29.07;101278.37;1704762;84;21038;-78
2022/04/28 10:49:26;;;;;;;2.90;1.40;;;;;;;18.53;28.62;101284.13;1704814;84;21183;-78
2022/04/28 10:51:58;;;;;;;2.97;1.40;;;;;;;18.61;28.65;101271.83;1704027;84;21003;-77
2022/04/28 10:54:25;;;;;;;3.17;1.45;;;;;;;18.64;28.61;101270.70;1706491;84;21122;-77
2022/04/28 10:57:00;;;;;;;2.67;1.10;;;;;;;18.69;28.23;101265.73;1705491;84;20972;-78
2022/04/28 10:59:40;;;;;;;2.90;1.60;;;;;;;18.76;27.98;101269.48;1705020;82;21121;-78
2022/04/28 11:02:16;;;;;;;2.15;1.22;;;;;;;18.74;28.24;101262.45;1716803;83;21737;-79
2022/04/28 11:04:52;;;;;;;3.33;1.37;;;;;;;18.76;28.52;101264.08;1725061;83;20936;-79
2022/04/28 11:07:23;;;;;;;2.50;1.20;;;;;;;18.76;28.27;101263.52;1723656;83;21050;-79
2022/04/28 11:09:55;;;;;;;3.57;1.50;;;;;;;18.77;28.13;101257.00;1707781;83;21078;-79
2022/04/28 11:12:25;;;;;;;3.80;1.40;;;;;;;18.83;28.24;101259.09;1730040;82;20989;-79
2022/04/28 11:15:05;;;;;;;3.27;1.50;;;;;;;18.86;28.07;101249.83;1729220;82;21354;-79
2022/04/28 11:17:36;;;;;;;3.07;1.60;;;;;;;19.05;27.71;101251.14;1704133;84;20959;-78
2022/04/28 11:20:14;;;;;;;2.80;1.60;;;;;;;19.05;27.71;101251.14;1703771;84;21917;-78
2022/04/28 11:22:47;;;;;;;3.37;1.60;;;;;;;19.01;27.75;101253.37;1703596;84;21038;-78
2022/04/28 11:25:16;;;;;;;2.87;1.30;;;;;;;19.01;27.50;101251.46;1704130;84;21082;-79
2022/04/28 11:27:46;;;;;;;3.77;1.50;;;;;;;19.03;27.50;101245.77;1705267;82;21094;-79
2022/04/28 11:30:22;;;;;;;2.27;1.20;;;;;;;19.07;27.50;101235.94;1703246;84;21012;-78
2022/04/28 11:32:59;;;;;;;2.03;1.00;;;;;;;19.15;27.36;101236.59;1704860;82;21064;-78
2022/04/28 11:35:39;;;;;;;2.30;1.30;;;;;;;19.25;27.56;101233.73;1703243;84;21713;-78
2022/04/28 11:38:05;;;;;;;2.40;1.20;;;;;;;19.43;27.62;101226.62;1703591;84;21009;-78
2022/04/28 11:40:35;;;;;;;2.93;1.40;;;;;;;19.62;27.46;101229.23;1703967;84;21185;-79
2022/04/28 11:43:03;;;;;;;2.33;1.30;;;;;;;19.75;26.63;101219.53;1710421;82;21401;-79
2022/04/28 11:45:33;;;;;;;2.73;1.30;;;;;;;19.87;26.88;101221.98;1708511;82;21573;-79
2022/04/28 11:48:03;;;;;;;2.97;1.60;;;;;;;19.98;26.48;101218.49;1704604;84;21018;-80
2022/04/28 11:50:34;;;;;;;3.57;1.60;;;;;;;19.97;26.11;101218.78;1699638;82;20998;-79
2022/04/28 11:53:12;;;;;;;3.30;1.43;;;;;;;19.82;25.92;101209.87;1733810;82;20988;-78
2022/04/28 11:55:40;;;;;;;3.90;1.60;;;;;;;19.70;26.18;101214.20;1734150;82;21093;-79
2022/04/28 11:58:09;;;;;;;4.50;1.87;;;;;;;19.55;26.73;101213.94;1727278;82;21124;-79
2022/04/28 12:00:42;;;;;;;4.00;2.00;;;;;;;19.35;26.67;101211.07;1711697;83;21001;-78
2022/04/28 12:03:25;;;;;;;3.03;1.80;;;;;;;19.15;26.94;101208.16;1704098;84;21072;-80
2022/04/28 12:05:53;;;;;;;4.45;1.90;;;;;;;19.12;27.16;101206.87;1705535;82;21154;-79
2022/04/28 12:08:22;;;;;;;4.47;1.93;;;;;;;19.13;27.07;101207.67;1674238;84;20978;-78
2022/04/28 12:19:19;;;;;;;5.43;1.90;;;;;;;19.04;26.50;101206.20;1706317;84;21126;-78
2022/04/28 12:21:46;;;;;;;4.90;2.00;;;;;;;18.95;26.45;101197.14;1732139;81;21536;-77
2022/04/28 12:24:19;;;;;;;3.30;1.70;;;;;;;18.87;26.18;101201.34;1708927;82;21004;-79
2022/04/28 12:26:49;;;;;;;3.37;1.80;;;;;;;18.80;26.59;101202.84;1700671;84;21437;-78
2022/04/28 12:29:19;;;;;;;3.53;1.80;;;;;;;18.83;26.66;101194.92;1675596;85;21511;-79
2022/04/28 12:31:47;;;;;;;3.20;1.93;;;;;;;18.97;26.32;101203.88;1675877;85;21943;-79